メインページ
METAR-TAF:

METAR-TAF

空港 :

Belmar / Farmingdale, ニュージャージー州, アメリカ合衆国

緯度: 40-11N, 経度: 074-08W, 海抜: 48m

現時点の気象観測

当レポートは11分前の05:56(UTC)に作成
の風 10kt
気温 10°C
湿度 76%
気圧 1012 hPa
視程: 16.1km
高度2700ftの曇り

METAR: KBLM 040556Z AUTO 01010KT 10SM OVC027 10/06 A2987 RMK AO2 SLP117 60000 T01000056 10100 20100 53007

時間: 02:07 (06:07 UTC)


TAF: 見つかりません

4,000以上の空港の気象観測と天気予報(METAR報とTAF報)

利用可能な観測所は地図上に黄色い丸と赤い丸で示す。

丸の上にカーソルを重ねると観測所名を参照できる。

次にクリックすると気象観測と天気予報を参照できる。

マップの切り替え:黒色「×」印の緑ボタンをクリックして拡大、「-」印の緑ボタンをクリックして縮小、緑色の三角印をクリックして隣りの地図に切り替え


METAR-TAF: